Tenerife > ESTACION METEOROLÓGICA Tegueste

DATOS ACTUALES Online

Ultima actulizacion 26 minutos

19.9 ºC

Temperatura

89

Humedad (%)

1016.7

Presión (mb)

0

Precipitación (mm)

7.74 NW

Viento (Km/h)

DATOS DIARIOS

Temperatura últimas 24 horas (ºC)

Humedad últimas 24 horas (%)

Presión atmosférica últimas 24 horas (mb)

Precipitaciones últimas 23 horas (mm)

Viento últimas 24 horas (Km/h)

Hora Temperatura (°C) ºC Precipitación (mm) mm Presión (mb) mb Humedad (%) % Viento (Km/h) km/h
15 - 23:00 19.7 0.4 1018 85 9.36 SW
16 - 00:00 20.1 0 1017 87 7.74 NW
16 - 01:00 19.9 0 1017 87 7.74 SW
16 - 02:00 19.8 0 1016 88 7.74 NW
16 - 03:00 19.7 0 1016 88 6.3 W
16 - 04:00 19.7 0 1016 88 6.3 SW
16 - 05:00 19.7 0 1016 89 9.36 W
16 - 06:00 19.5 0 1016 90 9.36 W
16 - 07:00 19.4 0 1016 90 6.3 NW
16 - 08:00 19.3 0 1016 89 4.68 W
16 - 09:00 20 0 1016 88 7.74 NW
16 - 10:00 20.8 0 1016 86 9.36 W
16 - 11:00 21.8 0 1016 83 10.98 W
16 - 12:00 22.3 0 1016 83 12.6 NW
16 - 13:00 21.6 0 1016 83 14.04 NW
16 - 14:00 22.4 0 1016 81 14.04 NW
16 - 15:00 22.6 0 1015 78 14.04 NW
16 - 16:00 21.9 0 1015 80 12.6 NE
16 - 17:00 21.8 0 1015 81 10.98 NW
16 - 18:00 21.5 0 1015 81 12.6 NW
16 - 19:00 20.8 0 1015 85 7.74 N
16 - 20:00 20.5 0 1015 87 9.36 NW
16 - 21:00 19.8 0 1016 87 7.74 NW
16 - 22:00 19.9 0 1016 87 4.68 NW
16 - 23:00 19.9 0 1017 89 7.74 NW
Apalmet utiliza cookies propias y de terceros para mejorar la usabilidad y la experiencia web. Política de cookies.